Rosaria Lauro — IXXO — position and weather

sailwx.info

Track history (hours):
 
Tides and Currents Weather Stations Pressure Air Temp Water Temp Dewpoint Dewpoint Depression Visibility Wind Speed Wind Dir Waves Ship Positions

Rosaria Lauro

Last reported at 2014-Nov-22 17:33 UTC. Time now 2014-Nov-23 08:49 UTC.
Position N 40°46' E 013°60'.

Length 40 m; draft 1.5 m.

Type: Passenger vessel. MMSI: 247055900.

Date/timePositionNaut miles runAvg speedWind from/ knotsBaromVisibWave heightAir tempDewpointWater temp
2014-Nov-22 17:33N 40°46' E 013°60'1312.7
2014-Nov-22 16:30N 40°50' E 014°17'1617.0
2014-Nov-22 15:33N 40°45' E 013°56'0 0.1
2014-Nov-22 14:33N 40°45' E 013°56'0 0.0
2014-Nov-22 13:33N 40°45' E 013°56'4 4.1
2014-Nov-22 12:34N 40°47' E 014°01'1211.3
2014-Nov-22 11:30N 40°50' E 014°16'1616.8
2014-Nov-22 10:34N 40°45' E 013°56'3 2.7
2014-Nov-22 09:34N 40°46' E 013°59'1411.8
2014-Nov-22 08:25N 40°50' E 014°17'1619.1
2014-Nov-22 07:33N 40°45' E 013°56'4 0.3
2014-Nov-21 17:33N 40°44' E 013°52'1818.4
2014-Nov-21 16:33N 40°48' E 014°15'7 7.5
2014-Nov-21 15:34N 40°46' E 014°06'7 7.2
2014-Nov-21 14:34N 40°45' E 013°56'16 5.2
2014-Nov-21 11:28N 40°50' E 014°17'1617.5
2014-Nov-21 10:34N 40°45' E 013°57'1 1.1
2014-Nov-21 09:34N 40°45' E 013°55'8 2.8
2014-Nov-21 06:33N 40°46' E 014°06'1111.3
2014-Nov-21 05:33N 40°44' E 013°52'0 0.0
2014-Nov-20 17:33N 40°44' E 013°52'2018.5
2014-Nov-20 16:30N 40°49' E 014°17'910.1
2014-Nov-20 15:33N 40°46' E 014°05'7 6.8
2014-Nov-20 14:34N 40°45' E 013°56'16 5.2
2014-Nov-20 11:29N 40°50' E 014°16'1617.0
2014-Nov-20 10:34N 40°45' E 013°56'1 0.6
2014-Nov-20 09:33N 40°45' E 013°56'8 2.5
2014-Nov-20 06:34N 40°46' E 014°06'1111.3
2014-Nov-20 05:33N 40°44' E 013°52'4 0.3
2014-Nov-19 17:33N 40°45' E 013°56'1515.1
2014-Nov-19 16:33N 40°49' E 014°16'9 9.5
2014-Nov-19 15:34N 40°45' E 014°04'6 6.1
2014-Nov-19 14:33N 40°45' E 013°56'16 5.2
2014-Nov-19 11:30N 40°50' E 014°16'1616.7
2014-Nov-19 10:33N 40°45' E 013°56'0 0.0
2014-Nov-19 09:34N 40°45' E 013°56'7 2.2
2014-Nov-19 06:34N 40°46' E 014°05'1010.3
2014-Nov-19 05:34N 40°44' E 013°52'4 3.7
2014-Nov-19 04:34N 40°45' E 013°56'0 0.0
2014-Nov-18 17:26N 40°45' E 013°56'7 3.6
2014-Nov-18 15:33N 40°45' E 014°05'7 6.8
2014-Nov-18 14:33N 40°45' E 013°56'16 5.2
2014-Nov-18 11:33N 40°49' E 014°16'1615.6
2014-Nov-18 10:34N 40°45' E 013°56'0 0.2
2014-Nov-18 09:34N 40°45' E 013°57'7 2.4
2014-Nov-18 06:33N 40°46' E 014°06'7 7.4
2014-Nov-18 05:33N 40°45' E 013°56'0 0.0
2014-Nov-17 15:33N 40°45' E 013°56'1 1.5
2014-Nov-17 14:34N 40°45' E 013°58'15 4.9
2014-Nov-17 11:33N 40°50' E 014°17'1616.5
2014-Nov-17 10:34N 40°45' E 013°56'1 1.0
2014-Nov-17 09:33N 40°45' E 013°56'7 2.4
2014-Nov-17 06:34N 40°46' E 014°06'1110.8
2014-Nov-17 05:33N 40°45' E 013°52'7 0.2
2014-Nov-15 17:34N 40°46' E 014°00'13 2.1
2014-Nov-15 11:26N 40°50' E 014°17'1618.3
2014-Nov-15 10:33N 40°45' E 013°56'0 0.2
2014-Nov-15 09:33N 40°45' E 013°56'1615.0
2014-Nov-15 08:30N 40°50' E 014°16'1616.7
2014-Nov-15 07:33N 40°45' E 013°56'0 0.0
2014-Nov-14 20:16N 40°45' E 013°56'1620.1
2014-Nov-14 19:29N 40°49' E 014°17'7 7.3
2014-Nov-14 18:33N 40°47' E 014°08'1 1.3
2014-Nov-14 17:34N 40°47' E 014°07'6 6.4
2014-Nov-14 16:33N 40°49' E 014°15'1514.6
2014-Nov-14 15:34N 40°45' E 013°56'4 1.3
2014-Nov-14 12:34N 40°46' E 014°01'12 3.8
2014-Nov-14 09:22N 40°50' E 014°16'1619.9
2014-Nov-14 08:34N 40°45' E 013°56'0 0.5
2014-Nov-14 07:33N 40°45' E 013°56'1612.0
2014-Nov-14 06:15N 40°50' E 014°16'1622.9
2014-Nov-14 05:33N 40°45' E 013°57'0 0.0
2014-Nov-13 20:17N 40°45' E 013°56'1613.3
2014-Nov-13 19:04N 40°50' E 014°17'917.3
2014-Nov-13 18:33N 40°45' E 014°07'2 1.8
2014-Nov-13 17:33N 40°47' E 014°09'4 3.6
2014-Nov-13 16:30N 40°48' E 014°13'1314.1
2014-Nov-13 15:33N 40°45' E 013°56'12 6.0
2014-Nov-13 13:33N 40°47' E 014°12'7 7.5
2014-Nov-13 12:34N 40°45' E 014°02'12 3.7
2014-Nov-13 09:22N 40°50' E 014°17'1620.1
2014-Nov-13 08:34N 40°45' E 013°56'0 0.3
2014-Nov-13 07:33N 40°45' E 013°57'1612.3
2014-Nov-13 06:16N 40°50' E 014°16'1622.6
2014-Nov-13 05:33N 40°45' E 013°56'0 0.2
2014-Nov-13 04:33N 40°45' E 013°56'  
Track history (hours):
 
Tides and Currents Weather Stations Pressure Air Temp Water Temp Dewpoint Dewpoint Depression Visibility Wind Speed Wind Dir Waves Ship Positions

Rosaria Lauro

Last reported at 2014-Nov-22 17:33 UTC. Time now 2014-Nov-23 08:49 UTC.
Position N 40°46' E 013°60'.

Length 40 m; draft 1.5 m.

Type: Passenger vessel. MMSI: 247055900.

Date/timePositionNaut miles runAvg speedWind from/ knotsBaromVisibWave heightAir tempDewpointWater temp
2014-Nov-22 17:33N 40°46' E 013°60'1312.7
2014-Nov-22 16:30N 40°50' E 014°17'1617.0
2014-Nov-22 15:33N 40°45' E 013°56'0 0.1
2014-Nov-22 14:33N 40°45' E 013°56'0 0.0
2014-Nov-22 13:33N 40°45' E 013°56'4 4.1
2014-Nov-22 12:34N 40°47' E 014°01'1211.3
2014-Nov-22 11:30N 40°50' E 014°16'1616.8
2014-Nov-22 10:34N 40°45' E 013°56'3 2.7
2014-Nov-22 09:34N 40°46' E 013°59'1411.8
2014-Nov-22 08:25N 40°50' E 014°17'1619.1
2014-Nov-22 07:33N 40°45' E 013°56'4 0.3
2014-Nov-21 17:33N 40°44' E 013°52'1818.4
2014-Nov-21 16:33N 40°48' E 014°15'7 7.5
2014-Nov-21 15:34N 40°46' E 014°06'7 7.2
2014-Nov-21 14:34N 40°45' E 013°56'16 5.2
2014-Nov-21 11:28N 40°50' E 014°17'1617.5
2014-Nov-21 10:34N 40°45' E 013°57'1 1.1
2014-Nov-21 09:34N 40°45' E 013°55'8 2.8
2014-Nov-21 06:33N 40°46' E 014°06'1111.3
2014-Nov-21 05:33N 40°44' E 013°52'0 0.0
2014-Nov-20 17:33N 40°44' E 013°52'2018.5
2014-Nov-20 16:30N 40°49' E 014°17'910.1
2014-Nov-20 15:33N 40°46' E 014°05'7 6.8
2014-Nov-20 14:34N 40°45' E 013°56'16 5.2
2014-Nov-20 11:29N 40°50' E 014°16'1617.0
2014-Nov-20 10:34N 40°45' E 013°56'1 0.6
2014-Nov-20 09:33N 40°45' E 013°56'8 2.5
2014-Nov-20 06:34N 40°46' E 014°06'1111.3
2014-Nov-20 05:33N 40°44' E 013°52'4 0.3
2014-Nov-19 17:33N 40°45' E 013°56'1515.1
2014-Nov-19 16:33N 40°49' E 014°16'9 9.5
2014-Nov-19 15:34N 40°45' E 014°04'6 6.1
2014-Nov-19 14:33N 40°45' E 013°56'16 5.2
2014-Nov-19 11:30N 40°50' E 014°16'1616.7
2014-Nov-19 10:33N 40°45' E 013°56'0 0.0
2014-Nov-19 09:34N 40°45' E 013°56'7 2.2
2014-Nov-19 06:34N 40°46' E 014°05'1010.3
2014-Nov-19 05:34N 40°44' E 013°52'4 3.7
2014-Nov-19 04:34N 40°45' E 013°56'0 0.0
2014-Nov-18 17:26N 40°45' E 013°56'7 3.6
2014-Nov-18 15:33N 40°45' E 014°05'7 6.8
2014-Nov-18 14:33N 40°45' E 013°56'16 5.2
2014-Nov-18 11:33N 40°49' E 014°16'1615.6
2014-Nov-18 10:34N 40°45' E 013°56'0 0.2
2014-Nov-18 09:34N 40°45' E 013°57'7 2.4
2014-Nov-18 06:33N 40°46' E 014°06'7 7.4
2014-Nov-18 05:33N 40°45' E 013°56'0 0.0
2014-Nov-17 15:33N 40°45' E 013°56'1 1.5
2014-Nov-17 14:34N 40°45' E 013°58'15 4.9
2014-Nov-17 11:33N 40°50' E 014°17'1616.5
2014-Nov-17 10:34N 40°45' E 013°56'1 1.0
2014-Nov-17 09:33N 40°45' E 013°56'7 2.4
2014-Nov-17 06:34N 40°46' E 014°06'1110.8
2014-Nov-17 05:33N 40°45' E 013°52'7 0.2
2014-Nov-15 17:34N 40°46' E 014°00'13 2.1
2014-Nov-15 11:26N 40°50' E 014°17'1618.3
2014-Nov-15 10:33N 40°45' E 013°56'0 0.2
2014-Nov-15 09:33N 40°45' E 013°56'1615.0
2014-Nov-15 08:30N 40°50' E 014°16'1616.7
2014-Nov-15 07:33N 40°45' E 013°56'0 0.0
2014-Nov-14 20:16N 40°45' E 013°56'1620.1
2014-Nov-14 19:29N 40°49' E 014°17'7 7.3
2014-Nov-14 18:33N 40°47' E 014°08'1 1.3
2014-Nov-14 17:34N 40°47' E 014°07'6 6.4
2014-Nov-14 16:33N 40°49' E 014°15'1514.6
2014-Nov-14 15:34N 40°45' E 013°56'4 1.3
2014-Nov-14 12:34N 40°46' E 014°01'12 3.8
2014-Nov-14 09:22N 40°50' E 014°16'1619.9
2014-Nov-14 08:34N 40°45' E 013°56'0 0.5
2014-Nov-14 07:33N 40°45' E 013°56'1612.0
2014-Nov-14 06:15N 40°50' E 014°16'1622.9
2014-Nov-14 05:33N 40°45' E 013°57'0 0.0
2014-Nov-13 20:17N 40°45' E 013°56'1613.3
2014-Nov-13 19:04N 40°50' E 014°17'917.3
2014-Nov-13 18:33N 40°45' E 014°07'2 1.8
2014-Nov-13 17:33N 40°47' E 014°09'4 3.6
2014-Nov-13 16:30N 40°48' E 014°13'1314.1
2014-Nov-13 15:33N 40°45' E 013°56'12 6.0
2014-Nov-13 13:33N 40°47' E 014°12'7 7.5
2014-Nov-13 12:34N 40°45' E 014°02'12 3.7
2014-Nov-13 09:22N 40°50' E 014°17'1620.1
2014-Nov-13 08:34N 40°45' E 013°56'0 0.3
2014-Nov-13 07:33N 40°45' E 013°57'1612.3
2014-Nov-13 06:16N 40°50' E 014°16'1622.6
2014-Nov-13 05:33N 40°45' E 013°56'0 0.2
2014-Nov-13 04:33N 40°45' E 013°56'  

Dump ship's entire track history